Time;durP1;ratioP1;P1;durP2;ratioP2;P2;SDS_P1;SDS_P2;PMS_P1;PMS_P2;Temp;Humidity;BMP_temperature;BMP_pressure;BME280_temperature;BME280_humidity;BME280_pressure;Samples;Min_cycle;Max_cycle;Signal;HPM_P1;HPM_P2
2022/10/25 00:01:44;;;;;;;7.78;4.80;;;;;;;;;;5030293;28;20240;-68
2022/10/25 00:04:09;;;;;;;8.68;4.75;;;;;;;;;;5031405;28;20185;-68
2022/10/25 00:06:34;;;;;;;12.05;4.85;;;;;;;;;;5032184;28;20177;-69
2022/10/25 00:08:59;;;;;;;8.30;4.60;;;;;;;;;;5031506;28;20198;-69
2022/10/25 00:11:26;;;;;;;9.85;4.35;;;;;;;;;;5029746;28;20207;-69
2022/10/25 00:13:52;;;;;;;11.10;5.40;;;;;;;;;;5028028;28;20198;-68
2022/10/25 00:16:19;;;;;;;10.80;5.40;;;;;;;;;;5029177;28;20263;-69
2022/10/25 00:18:44;;;;;;;9.32;4.18;;;;;;;;;;5035119;28;20198;-69
2022/10/25 00:21:10;;;;;;;10.82;5.50;;;;;;;;;;5027154;28;20174;-69
2022/10/25 00:23:35;;;;;;;10.88;5.43;;;;;;;;;;5036747;28;20195;-68
2022/10/25 00:26:01;;;;;;;13.02;5.45;;;;;;;;;;5023426;28;20194;-69
2022/10/25 00:28:26;;;;;;;9.80;5.53;;;;;;;;;;5029339;28;20367;-69
2022/10/25 00:30:58;;;;;;;9.52;5.00;;;;;;;;;;5030035;28;20552;-68
2022/10/25 00:33:23;;;;;;;17.25;5.00;;;;;;;;;;5021074;28;20247;-68
2022/10/25 00:35:48;;;;;;;10.60;5.32;;;;;;;;;;5029049;28;20580;-69
2022/10/25 00:38:13;;;;;;;9.40;4.75;;;;;;;;;;5023021;28;20198;-69
2022/10/25 00:40:39;;;;;;;7.40;4.13;;;;;;;;;;5027976;28;20174;-68
2022/10/25 00:43:04;;;;;;;8.30;4.10;;;;;;;;;;5030478;28;20174;-68
2022/10/25 00:45:29;;;;;;;7.15;3.85;;;;;;;;;;5026696;28;20178;-68
2022/10/25 00:48:03;;;;;;;9.25;4.03;;;;;;;;;;5029479;28;20842;-68
2022/10/25 00:50:34;;;;;;;8.80;3.88;;;;;;;;;;5029257;28;20340;-68
2022/10/25 00:53:05;;;;;;;10.40;3.92;;;;;;;;;;5023432;28;20652;-68
2022/10/25 00:55:31;;;;;;;11.05;4.00;;;;;;;;;;5026561;28;20213;-68
2022/10/25 00:58:02;;;;;;;10.18;3.03;;;;;;;;;;5027817;28;20206;-68
2022/10/25 01:00:27;;;;;;;12.38;3.33;;;;;;;;;;5041114;28;20187;-68
2022/10/25 01:02:53;;;;;;;5.65;2.80;;;;;;;;;;5028280;28;20517;-68
2022/10/25 01:05:18;;;;;;;8.02;3.15;;;;;;;;;;5044366;28;20178;-68
2022/10/25 01:07:44;;;;;;;8.07;2.63;;;;;;;;;;5021770;28;20226;-68
2022/10/25 01:10:09;;;;;;;11.27;2.35;;;;;;;;;;5040917;28;20182;-68
2022/10/25 01:12:34;;;;;;;9.75;3.40;;;;;;;;;;5027890;28;20318;-68
2022/10/25 01:15:00;;;;;;;12.20;3.90;;;;;;;;;;5026728;28;20221;-68
2022/10/25 01:17:41;;;;;;;14.90;3.13;;;;;;;;;;5030307;28;20185;-68
2022/10/25 01:20:22;;;;;;;10.70;2.45;;;;;;;;;;5027238;28;20629;-68
2022/10/25 01:23:10;;;;;;;8.73;3.15;;;;;;;;;;5028120;28;20257;-68
2022/10/25 01:25:48;;;;;;;9.85;3.53;;;;;;;;;;5009915;28;20273;-68
2022/10/25 01:28:22;;;;;;;7.07;3.20;;;;;;;;;;5028176;28;20245;-69
2022/10/25 01:30:50;;;;;;;8.10;2.78;;;;;;;;;;5028509;28;20211;-68
2022/10/25 01:33:21;;;;;;;10.00;2.70;;;;;;;;;;5029792;28;20244;-69
2022/10/25 01:35:52;;;;;;;10.57;2.67;;;;;;;;;;5025352;28;20206;-68
2022/10/25 01:38:36;;;;;;;11.30;2.70;;;;;;;;;;5020836;28;20682;-68
2022/10/25 01:41:12;;;;;;;8.98;2.97;;;;;;;;;;5025596;28;20232;-67
2022/10/25 01:43:40;;;;;;;13.57;3.28;;;;;;;;;;5027500;28;20210;-69
2022/10/25 01:46:18;;;;;;;12.80;3.22;;;;;;;;;;5029053;28;20261;-67
2022/10/25 01:48:46;;;;;;;8.10;2.85;;;;;;;;;;5027884;28;20201;-69
2022/10/25 01:51:14;;;;;;;16.30;4.03;;;;;;;;;;5025831;28;20182;-69
2022/10/25 01:53:49;;;;;;;20.83;3.97;;;;;;;;;;5028784;28;20197;-68
2022/10/25 01:56:23;;;;;;;11.75;4.03;;;;;;;;;;5027853;28;20240;-69
2022/10/25 01:58:52;;;;;;;10.88;3.50;;;;;;;;;;5043559;28;20237;-67
2022/10/25 02:01:27;;;;;;;8.98;3.92;;;;;;;;;;5028771;28;20674;-68
2022/10/25 02:04:06;;;;;;;17.52;3.47;;;;;;;;;;5028593;28;20201;-68
2022/10/25 02:06:45;;;;;;;10.25;3.28;;;;;;;;;;5026783;28;20182;-69
2022/10/25 02:09:17;;;;;;;10.00;3.03;;;;;;;;;;5023408;28;20208;-69
2022/10/25 02:11:42;;;;;;;9.40;2.53;;;;;;;;;;5028237;28;20950;-69
2022/10/25 02:14:26;;;;;;;14.75;3.70;;;;;;;;;;5026077;28;20202;-69
2022/10/25 02:16:54;;;;;;;6.68;2.30;;;;;;;;;;5024119;28;20220;-66
2022/10/25 02:19:22;;;;;;;10.23;2.95;;;;;;;;;;5025325;28;20330;-67
2022/10/25 02:21:48;;;;;;;10.13;2.85;;;;;;;;;;5029620;28;20618;-68
2022/10/25 02:24:18;;;;;;;10.32;3.00;;;;;;;;;;5032082;28;20253;-68
2022/10/25 02:26:45;;;;;;;8.90;2.55;;;;;;;;;;5019697;28;20191;-68
2022/10/25 02:29:12;;;;;;;7.10;2.35;;;;;;;;;;5025997;28;20671;-68
2022/10/25 02:31:37;;;;;;;19.75;4.00;;;;;;;;;;5030203;28;20187;-68
2022/10/25 02:34:02;;;;;;;13.13;2.60;;;;;;;;;;5024011;28;20202;-68
2022/10/25 02:36:28;;;;;;;12.68;3.05;;;;;;;;;;5024271;28;20178;-67
2022/10/25 02:38:53;;;;;;;8.52;2.63;;;;;;;;;;5024047;28;20195;-68
2022/10/25 02:41:19;;;;;;;13.77;2.40;;;;;;;;;;5026766;28;20187;-68
2022/10/25 02:43:44;;;;;;;12.85;2.20;;;;;;;;;;5029507;28;20189;-68
2022/10/25 02:46:13;;;;;;;8.15;2.17;;;;;;;;;;5020572;28;20686;-68
2022/10/25 02:48:39;;;;;;;12.00;3.13;;;;;;;;;;5026552;28;20213;-68
2022/10/25 02:51:05;;;;;;;12.90;3.20;;;;;;;;;;5034000;28;20182;-68
2022/10/25 02:53:30;;;;;;;13.88;3.25;;;;;;;;;;5029344;28;20240;-68
2022/10/25 02:56:10;;;;;;;10.70;3.47;;;;;;;;;;5028347;28;20210;-68
2022/10/25 02:58:36;;;;;;;7.70;2.05;;;;;;;;;;5024994;28;20272;-68
2022/10/25 03:01:01;;;;;;;16.80;3.90;;;;;;;;;;5027254;28;20186;-68
2022/10/25 03:03:27;;;;;;;5.30;2.80;;;;;;;;;;5022159;28;20232;-68
2022/10/25 03:05:52;;;;;;;8.90;3.00;;;;;;;;;;5028158;28;20170;-69
2022/10/25 03:08:17;;;;;;;12.82;3.28;;;;;;;;;;5028210;28;20684;-68
2022/10/25 03:10:43;;;;;;;8.30;2.60;;;;;;;;;;5026804;28;20610;-68
2022/10/25 03:13:08;;;;;;;12.25;4.00;;;;;;;;;;5029300;28;20188;-68
2022/10/25 03:15:33;;;;;;;11.30;3.17;;;;;;;;;;5023025;28;20206;-68
2022/10/25 03:17:58;;;;;;;10.70;2.83;;;;;;;;;;5032596;28;20190;-68
2022/10/25 03:20:23;;;;;;;10.18;2.53;;;;;;;;;;5024516;28;20167;-68
2022/10/25 03:22:49;;;;;;;11.02;3.15;;;;;;;;;;5027007;28;20731;-68
2022/10/25 03:25:14;;;;;;;9.98;3.05;;;;;;;;;;5029353;28;20190;-68
2022/10/25 03:27:39;;;;;;;18.05;3.20;;;;;;;;;;5028033;28;20186;-68
2022/10/25 03:30:05;;;;;;;16.48;3.50;;;;;;;;;;5054868;22;20579;-73
2022/10/25 03:32:30;;;;;;;13.48;2.40;;;;;;;;;;5046377;28;20663;-73
2022/10/25 03:34:55;;;;;;;8.70;3.08;;;;;;;;;;5040238;28;20198;-73
2022/10/25 03:37:20;;;;;;;12.13;2.88;;;;;;;;;;5039442;28;20204;-73
2022/10/25 03:39:45;;;;;;;14.65;3.83;;;;;;;;;;5033171;28;20199;-72
2022/10/25 03:42:10;;;;;;;9.57;2.35;;;;;;;;;;5032801;28;20514;-72
2022/10/25 03:44:36;;;;;;;16.10;3.15;;;;;;;;;;5043209;28;20186;-72
2022/10/25 03:47:01;;;;;;;12.90;3.50;;;;;;;;;;5020859;28;20187;-72
2022/10/25 03:49:26;;;;;;;6.82;2.95;;;;;;;;;;5033263;28;20635;-72
2022/10/25 03:51:51;;;;;;;11.43;3.40;;;;;;;;;;5031396;28;20177;-72
2022/10/25 03:54:16;;;;;;;9.52;3.22;;;;;;;;;;5021621;28;20228;-72
2022/10/25 03:56:41;;;;;;;10.73;3.03;;;;;;;;;;5024462;28;20186;-72
2022/10/25 03:59:07;;;;;;;14.63;3.88;;;;;;;;;;5020241;28;20717;-72
2022/10/25 04:01:32;;;;;;;13.50;3.67;;;;;;;;;;5029282;28;20178;-72
2022/10/25 04:03:57;;;;;;;9.95;3.50;;;;;;;;;;5026629;28;20224;-74
2022/10/25 04:06:22;;;;;;;8.95;3.30;;;;;;;;;;5028967;28;20261;-73
2022/10/25 04:08:47;;;;;;;12.02;3.30;;;;;;;;;;5015336;28;20272;-73
2022/10/25 04:11:13;;;;;;;10.27;4.22;;;;;;;;;;5031064;28;20186;-71
2022/10/25 04:13:38;;;;;;;9.30;4.03;;;;;;;;;;5026332;28;20190;-73
2022/10/25 04:16:04;;;;;;;12.13;3.72;;;;;;;;;;5022715;28;20206;-73
2022/10/25 04:18:29;;;;;;;11.38;4.05;;;;;;;;;;5029477;28;20209;-73
2022/10/25 04:20:56;;;;;;;14.65;5.47;;;;;;;;;;5028862;28;20175;-73
2022/10/25 04:23:21;;;;;;;9.18;3.63;;;;;;;;;;5027134;28;20595;-74
2022/10/25 04:25:47;;;;;;;8.38;4.53;;;;;;;;;;5026752;28;20190;-71
2022/10/25 04:28:12;;;;;;;10.07;5.05;;;;;;;;;;5028934;28;20615;-73
2022/10/25 04:30:37;;;;;;;16.27;5.55;;;;;;;;;;5025833;28;20186;-73
2022/10/25 04:33:02;;;;;;;14.55;4.13;;;;;;;;;;5020376;28;20215;-74
2022/10/25 04:35:27;;;;;;;11.40;4.60;;;;;;;;;;5032748;28;20198;-72
2022/10/25 04:37:55;;;;;;;13.40;4.20;;;;;;;;;;5026301;28;20175;-73
2022/10/25 04:40:20;;;;;;;10.23;3.65;;;;;;;;;;5023266;28;20202;-72
2022/10/25 04:42:45;;;;;;;9.57;4.75;;;;;;;;;;5028519;28;20717;-74
2022/10/25 04:45:11;;;;;;;9.57;3.83;;;;;;;;;;5028961;28;20182;-72
2022/10/25 04:47:36;;;;;;;10.27;4.45;;;;;;;;;;5024508;28;22370;-72
2022/10/25 04:50:02;;;;;;;15.32;4.88;;;;;;;;;;5024899;28;20207;-72
2022/10/25 04:52:28;;;;;;;13.02;5.10;;;;;;;;;;5027288;28;20682;-72
2022/10/25 04:54:53;;;;;;;14.15;5.75;;;;;;;;;;5032213;28;20247;-72
2022/10/25 04:57:19;;;;;;;14.02;5.43;;;;;;;;;;5025883;28;20175;-72
2022/10/25 04:59:44;;;;;;;11.68;5.45;;;;;;;;;;5028835;28;20218;-74
2022/10/25 05:02:09;;;;;;;10.73;5.25;;;;;;;;;;5027073;28;20193;-72
2022/10/25 05:04:35;;;;;;;16.15;6.60;;;;;;;;;;5028855;28;20187;-73
2022/10/25 05:07:00;;;;;;;12.35;5.53;;;;;;;;;;5026344;28;20178;-73
2022/10/25 05:09:25;;;;;;;10.55;5.32;;;;;;;;;;5030405;28;20679;-73
2022/10/25 05:11:50;;;;;;;9.45;5.50;;;;;;;;;;5027552;28;20183;-73
2022/10/25 05:14:15;;;;;;;14.13;5.18;;;;;;;;;;5022179;28;20233;-73
2022/10/25 05:16:41;;;;;;;10.85;4.20;;;;;;;;;;5014902;28;20182;-73
2022/10/25 05:19:06;;;;;;;9.07;4.38;;;;;;;;;;5026331;28;20236;-72
2022/10/25 05:21:31;;;;;;;19.98;5.50;;;;;;;;;;5020203;28;20609;-72
2022/10/25 05:23:57;;;;;;;6.18;3.63;;;;;;;;;;5029809;28;20174;-72
2022/10/25 05:26:22;;;;;;;13.98;5.03;;;;;;;;;;5023309;28;20185;-73
2022/10/25 05:28:48;;;;;;;12.00;4.30;;;;;;;;;;5023521;28;20290;-72
2022/10/25 05:31:19;;;;;;;13.40;3.90;;;;;;;;;;5025333;28;20170;-72
2022/10/25 05:33:44;;;;;;;8.88;3.88;;;;;;;;;;5027983;28;20254;-73
2022/10/25 05:36:10;;;;;;;8.27;3.65;;;;;;;;;;5028031;28;20297;-73
2022/10/25 05:38:35;;;;;;;11.75;4.10;;;;;;;;;;5022580;28;20206;-72
2022/10/25 05:41:00;;;;;;;14.73;3.92;;;;;;;;;;5027559;28;20196;-72
2022/10/25 05:43:25;;;;;;;10.73;4.05;;;;;;;;;;5026043;28;20178;-73
2022/10/25 05:45:51;;;;;;;5.55;3.17;;;;;;;;;;5022523;28;20211;-72
2022/10/25 05:48:17;;;;;;;7.30;3.20;;;;;;;;;;5018550;28;20230;-73
2022/10/25 05:50:43;;;;;;;8.75;3.70;;;;;;;;;;5038180;28;20220;-72
2022/10/25 05:53:08;;;;;;;11.18;3.80;;;;;;;;;;5029465;28;20178;-73
2022/10/25 05:55:33;;;;;;;8.88;4.30;;;;;;;;;;5028289;28;20272;-73
2022/10/25 05:57:58;;;;;;;9.20;3.90;;;;;;;;;;5028615;28;20174;-72
2022/10/25 06:00:23;;;;;;;6.95;3.90;;;;;;;;;;5016084;28;20257;-73
2022/10/25 06:02:49;;;;;;;9.20;4.50;;;;;;;;;;5023903;28;20195;-72
2022/10/25 06:05:14;;;;;;;7.68;4.30;;;;;;;;;;5023143;28;20190;-72
2022/10/25 06:07:39;;;;;;;9.48;4.97;;;;;;;;;;5028660;28;20202;-72
2022/10/25 06:10:04;;;;;;;8.30;3.97;;;;;;;;;;5028653;28;20303;-73
2022/10/25 06:12:30;;;;;;;13.23;6.50;;;;;;;;;;5022809;28;20195;-73
2022/10/25 06:14:55;;;;;;;12.13;5.43;;;;;;;;;;5023702;28;20226;-73
2022/10/25 06:17:20;;;;;;;13.73;5.00;;;;;;;;;;5026547;28;20175;-73
2022/10/25 06:19:45;;;;;;;16.15;6.60;;;;;;;;;;5027368;28;20233;-73
2022/10/25 06:22:10;;;;;;;14.43;5.70;;;;;;;;;;5029595;28;20317;-73
2022/10/25 06:24:35;;;;;;;10.70;5.25;;;;;;;;;;5028664;28;20178;-73
2022/10/25 06:27:01;;;;;;;10.95;6.43;;;;;;;;;;5018160;28;20201;-71
2022/10/25 06:29:26;;;;;;;14.57;5.75;;;;;;;;;;5026648;28;20710;-73
2022/10/25 06:31:51;;;;;;;13.60;6.80;;;;;;;;;;5026025;28;20207;-74
2022/10/25 06:34:16;;;;;;;10.30;6.88;;;;;;;;;;5025980;28;20192;-73
2022/10/25 06:36:41;;;;;;;9.60;6.03;;;;;;;;;;5025649;28;20542;-74
2022/10/25 06:39:06;;;;;;;13.15;6.28;;;;;;;;;;5019841;28;20210;-74
2022/10/25 06:41:32;;;;;;;10.75;5.22;;;;;;;;;;5026022;28;20236;-72
2022/10/25 06:43:58;;;;;;;12.35;6.78;;;;;;;;;;5029342;28;20431;-74
2022/10/25 06:46:27;;;;;;;12.02;6.05;;;;;;;;;;5025431;28;20202;-74
2022/10/25 06:48:53;;;;;;;10.18;6.25;;;;;;;;;;5025019;28;20202;-73
2022/10/25 06:51:19;;;;;;;9.27;6.10;;;;;;;;;;5029229;28;20232;-73
2022/10/25 06:53:44;;;;;;;13.73;6.35;;;;;;;;;;5027837;28;20218;-72
2022/10/25 06:56:10;;;;;;;10.70;6.03;;;;;;;;;;5027070;28;20579;-72
2022/10/25 06:58:35;;;;;;;13.55;8.70;;;;;;;;;;5026456;28;20218;-72
2022/10/25 07:01:01;;;;;;;11.75;5.90;;;;;;;;;;5026458;28;20221;-72
2022/10/25 07:03:30;;;;;;;15.52;6.63;;;;;;;;;;5026152;28;20174;-72
2022/10/25 07:05:58;;;;;;;16.42;6.28;;;;;;;;;;5020754;28;20592;-71
2022/10/25 07:08:23;;;;;;;12.48;6.25;;;;;;;;;;5031212;28;20236;-75
2022/10/25 07:10:53;;;;;;;16.80;6.35;;;;;;;;;;5027870;28;20206;-72
2022/10/25 07:13:18;;;;;;;13.48;7.47;;;;;;;;;;5033863;28;20218;-72
2022/10/25 07:15:43;;;;;;;11.90;7.03;;;;;;;;;;5027328;28;20225;-72
2022/10/25 07:18:08;;;;;;;16.13;6.90;;;;;;;;;;5021432;28;20723;-72
2022/10/25 07:20:33;;;;;;;12.05;7.35;;;;;;;;;;5025092;28;20178;-72
2022/10/25 07:22:58;;;;;;;11.68;6.93;;;;;;;;;;5029632;28;20209;-72
2022/10/25 07:25:24;;;;;;;12.65;7.70;;;;;;;;;;5017719;28;20214;-72
2022/10/25 07:27:49;;;;;;;10.82;6.88;;;;;;;;;;5014592;28;20182;-73
2022/10/25 07:30:14;;;;;;;13.23;7.47;;;;;;;;;;5028864;28;20218;-72
2022/10/25 07:32:39;;;;;;;12.23;7.25;;;;;;;;;;5022841;28;20208;-72
2022/10/25 07:35:04;;;;;;;13.43;7.75;;;;;;;;;;5020844;28;20212;-72
2022/10/25 07:37:30;;;;;;;17.88;7.75;;;;;;;;;;5021499;28;20184;-72
2022/10/25 07:39:55;;;;;;;13.10;7.40;;;;;;;;;;5030184;28;20656;-73
2022/10/25 07:42:20;;;;;;;24.75;10.25;;;;;;;;;;5027636;28;20187;-72
2022/10/25 07:44:45;;;;;;;12.30;8.25;;;;;;;;;;5018813;28;20174;-72
2022/10/25 07:47:10;;;;;;;14.05;8.02;;;;;;;;;;5027627;28;20182;-72
2022/10/25 07:49:37;;;;;;;8.82;7.22;;;;;;;;;;5014857;28;21669;-72
2022/10/25 07:52:02;;;;;;;11.85;7.55;;;;;;;;;;5021692;28;20534;-72
2022/10/25 07:54:28;;;;;;;12.23;8.07;;;;;;;;;;5031051;28;20180;-72
2022/10/25 07:56:53;;;;;;;16.83;7.35;;;;;;;;;;5030928;28;20182;-72
2022/10/25 07:59:19;;;;;;;13.05;6.72;;;;;;;;;;5025009;28;20198;-74
2022/10/25 08:01:44;;;;;;;11.15;6.80;;;;;;;;;;5025809;28;20245;-72
2022/10/25 08:04:09;;;;;;;15.55;7.00;;;;;;;;;;5014838;28;20219;-73
2022/10/25 08:06:35;;;;;;;11.95;6.07;;;;;;;;;;5028120;28;20185;-74
2022/10/25 08:09:00;;;;;;;16.88;7.43;;;;;;;;;;5026450;28;20280;-72
2022/10/25 08:11:25;;;;;;;8.27;6.50;;;;;;;;;;5021842;28;20183;-72
2022/10/25 08:13:50;;;;;;;8.98;6.80;;;;;;;;;;5021607;28;20194;-72
2022/10/25 08:16:16;;;;;;;11.05;6.32;;;;;;;;;;5024941;28;20313;-72
2022/10/25 08:18:41;;;;;;;16.13;7.97;;;;;;;;;;5022815;28;20235;-72
2022/10/25 08:21:07;;;;;;;9.55;6.38;;;;;;;;;;5022392;28;20175;-72
2022/10/25 08:23:32;;;;;;;9.57;6.38;;;;;;;;;;5028087;28;20198;-72
2022/10/25 08:25:57;;;;;;;9.07;6.60;;;;;;;;;;5022418;28;20181;-72
2022/10/25 08:28:22;;;;;;;12.52;5.80;;;;;;;;;;5027670;28;20206;-72
2022/10/25 08:30:48;;;;;;;9.02;5.85;;;;;;;;;;5024133;28;20178;-72
2022/10/25 08:33:13;;;;;;;9.75;6.38;;;;;;;;;;5024525;28;20175;-72
2022/10/25 08:35:38;;;;;;;7.07;6.03;;;;;;;;;;5023731;28;20631;-74
2022/10/25 08:38:03;;;;;;;13.13;7.28;;;;;;;;;;5025861;28;20247;-74
2022/10/25 08:40:35;;;;;;;12.15;6.30;;;;;;;;;;5030493;28;20293;-72
2022/10/25 08:43:06;;;;;;;10.80;6.22;;;;;;;;;;5031515;28;20170;-72
2022/10/25 08:45:31;;;;;;;9.18;6.38;;;;;;;;;;5025929;28;20668;-72
2022/10/25 08:47:57;;;;;;;7.93;5.77;;;;;;;;;;5022895;28;20191;-72
2022/10/25 08:50:40;;;;;;;11.32;6.95;;;;;;;;;;5027109;28;20423;-72
2022/10/25 08:53:11;;;;;;;9.30;5.93;;;;;;;;;;5027378;28;20195;-72
2022/10/25 08:55:43;;;;;;;10.65;7.22;;;;;;;;;;5025737;28;20745;-72
2022/10/25 08:58:13;;;;;;;11.68;5.85;;;;;;;;;;5043701;28;20178;-72
2022/10/25 09:00:39;;;;;;;10.90;6.55;;;;;;;;;;5024834;28;20185;-72
2022/10/25 09:03:04;;;;;;;12.30;7.00;;;;;;;;;;5028182;28;20171;-72
2022/10/25 09:05:37;;;;;;;8.90;6.50;;;;;;;;;;5025158;28;20216;-73
2022/10/25 09:08:02;;;;;;;9.55;6.15;;;;;;;;;;5042400;28;20186;-72
2022/10/25 09:10:27;;;;;;;11.67;6.03;;;;;;;;;;5035435;28;20627;-72
2022/10/25 09:13:05;;;;;;;6.72;5.78;;;;;;;;;;5028173;28;20512;-72
2022/10/25 09:15:42;;;;;;;12.13;5.50;;;;;;;;;;5027919;28;20688;-72
2022/10/25 09:18:14;;;;;;;6.78;4.88;;;;;;;;;;5022755;28;20424;-72
2022/10/25 09:20:45;;;;;;;7.20;5.68;;;;;;;;;;5027427;28;20679;-72
2022/10/25 09:23:30;;;;;;;7.68;4.93;;;;;;;;;;5027616;28;20186;-72
2022/10/25 09:26:01;;;;;;;10.57;5.15;;;;;;;;;;5025317;28;20182;-72
2022/10/25 09:28:55;;;;;;;9.27;5.70;;;;;;;;;;5025605;28;20211;-72
2022/10/25 09:31:22;;;;;;;7.50;5.70;;;;;;;;;;5011706;28;20198;-72
2022/10/25 09:33:49;;;;;;;7.03;5.68;;;;;;;;;;5024641;28;20232;-72
2022/10/25 09:36:14;;;;;;;8.25;4.90;;;;;;;;;;5024218;28;20895;-72
2022/10/25 09:38:45;;;;;;;6.00;4.85;;;;;;;;;;5029217;28;20311;-72
2022/10/25 09:41:16;;;;;;;9.85;5.60;;;;;;;;;;5036201;28;20915;-72
2022/10/25 09:43:41;;;;;;;6.68;5.10;;;;;;;;;;5025923;28;20214;-72
2022/10/25 09:46:16;;;;;;;8.73;5.07;;;;;;;;;;5028492;28;20214;-73
2022/10/25 09:48:45;;;;;;;8.40;5.03;;;;;;;;;;5021842;28;20451;-72
2022/10/25 09:51:34;;;;;;;7.13;4.82;;;;;;;;;;5032491;28;20265;-72
2022/10/25 09:54:00;;;;;;;9.32;5.65;;;;;;;;;;5027154;28;20278;-72
2022/10/25 09:56:25;;;;;;;11.00;6.10;;;;;;;;;;5023959;28;20216;-72
2022/10/25 09:58:51;;;;;;;8.65;6.13;;;;;;;;;;5030626;28;20752;-72
2022/10/25 10:01:24;;;;;;;12.13;7.63;;;;;;;;;;5020860;28;20174;-72
2022/10/25 10:03:49;;;;;;;7.85;6.00;;;;;;;;;;5026255;28;20204;-72
2022/10/25 10:06:24;;;;;;;9.63;6.07;;;;;;;;;;5027250;28;20186;-72
2022/10/25 10:08:56;;;;;;;11.90;6.28;;;;;;;;;;5037201;28;20204;-72
2022/10/25 10:11:21;;;;;;;13.25;7.43;;;;;;;;;;5029675;28;20674;-73
2022/10/25 10:13:49;;;;;;;9.27;6.45;;;;;;;;;;5023932;28;20182;-72
2022/10/25 10:16:23;;;;;;;9.75;6.55;;;;;;;;;;5029030;28;20301;-72
2022/10/25 10:18:48;;;;;;;11.85;6.95;;;;;;;;;;5028295;28;20220;-72
2022/10/25 10:21:17;;;;;;;10.18;7.25;;;;;;;;;;5030595;28;20646;-72
2022/10/25 10:23:42;;;;;;;11.43;6.43;;;;;;;;;;5030296;28;20178;-72
2022/10/25 10:26:10;;;;;;;17.77;7.83;;;;;;;;;;5028561;28;20667;-72
2022/10/25 10:28:35;;;;;;;9.57;6.55;;;;;;;;;;5040793;28;20463;-72
2022/10/25 10:31:03;;;;;;;7.65;6.45;;;;;;;;;;5030020;28;20265;-73
2022/10/25 10:33:30;;;;;;;8.52;6.22;;;;;;;;;;5029426;28;20208;-73
2022/10/25 10:36:15;;;;;;;13.38;6.35;;;;;;;;;;5023844;28;20207;-71
2022/10/25 10:38:41;;;;;;;9.70;5.75;;;;;;;;;;5034088;28;20190;-72
2022/10/25 10:41:13;;;;;;;7.50;5.00;;;;;;;;;;5030772;28;20192;-72
2022/10/25 10:43:39;;;;;;;8.82;5.20;;;;;;;;;;5029215;28;20443;-72
2022/10/25 10:46:13;;;;;;;6.97;4.75;;;;;;;;;;5027704;28;20198;-72
2022/10/25 10:48:41;;;;;;;13.63;5.25;;;;;;;;;;5023692;28;20201;-72
2022/10/25 10:51:06;;;;;;;7.47;4.30;;;;;;;;;;5028499;28;20269;-72
2022/10/25 10:53:31;;;;;;;6.65;3.85;;;;;;;;;;5039944;28;20716;-72
2022/10/25 10:56:00;;;;;;;9.70;3.30;;;;;;;;;;5023853;28;20206;-71
2022/10/25 10:58:28;;;;;;;6.18;3.22;;;;;;;;;;5040925;28;20293;-72
2022/10/25 11:00:56;;;;;;;6.60;3.00;;;;;;;;;;5023876;28;20232;-72
2022/10/25 11:03:39;;;;;;;8.35;3.33;;;;;;;;;;5027124;28;20182;-72
2022/10/25 11:06:06;;;;;;;9.38;3.47;;;;;;;;;;5029438;28;20281;-72
2022/10/25 11:08:31;;;;;;;6.53;3.35;;;;;;;;;;5027451;28;20332;-71
2022/10/25 11:11:15;;;;;;;6.38;2.67;;;;;;;;;;5025418;28;20277;-72
2022/10/25 11:13:45;;;;;;;4.45;2.70;;;;;;;;;;5033805;28;20257;-72
2022/10/25 11:16:25;;;;;;;6.68;3.13;;;;;;;;;;5032269;28;20218;-72
2022/10/25 11:19:07;;;;;;;8.02;3.60;;;;;;;;;;5025742;28;20190;-72
2022/10/25 11:21:44;;;;;;;4.47;2.38;;;;;;;;;;5027798;28;20209;-72
2022/10/25 11:24:41;;;;;;;7.80;3.03;;;;;;;;;;5027323;28;20182;-71
2022/10/25 11:27:25;;;;;;;11.15;3.80;;;;;;;;;;4997270;28;20194;-72
2022/10/25 11:30:07;;;;;;;6.05;2.80;;;;;;;;;;5029174;28;20264;-72
2022/10/25 11:32:38;;;;;;;7.05;3.00;;;;;;;;;;5033016;28;20193;-72
2022/10/25 11:35:06;;;;;;;4.97;2.95;;;;;;;;;;5030598;28;20241;-71
2022/10/25 11:37:45;;;;;;;5.15;3.10;;;;;;;;;;5036524;28;20174;-72
2022/10/25 11:40:17;;;;;;;10.13;3.70;;;;;;;;;;5033805;28;20210;-72
2022/10/25 11:42:54;;;;;;;4.57;3.10;;;;;;;;;;5025770;28;20173;-71
2022/10/25 11:45:34;;;;;;;7.70;3.72;;;;;;;;;;5032688;28;20174;-72
2022/10/25 11:48:31;;;;;;;10.32;4.05;;;;;;;;;;5033851;28;20187;-72
2022/10/25 11:50:57;;;;;;;9.63;4.32;;;;;;;;;;4986271;28;20324;-72
2022/10/25 11:53:32;;;;;;;9.88;5.05;;;;;;;;;;5032436;28;20628;-72
2022/10/25 11:56:01;;;;;;;7.18;3.80;;;;;;;;;;5028021;28;20262;-72
2022/10/25 11:58:38;;;;;;;7.25;3.70;;;;;;;;;;5031995;28;20194;-72
2022/10/25 12:01:15;;;;;;;5.65;3.33;;;;;;;;;;5024648;28;20289;-72
2022/10/25 12:04:00;;;;;;;6.95;4.30;;;;;;;;;;5028136;28;20614;-74
2022/10/25 12:06:25;;;;;;;7.88;4.07;;;;;;;;;;5022253;28;20174;-72
2022/10/25 12:09:02;;;;;;;6.40;3.42;;;;;;;;;;5025383;28;20212;-72
2022/10/25 12:11:30;;;;;;;5.95;3.78;;;;;;;;;;5029522;28;20259;-71
2022/10/25 12:13:57;;;;;;;8.43;3.63;;;;;;;;;;5025425;28;20178;-72
2022/10/25 12:16:23;;;;;;;10.10;3.78;;;;;;;;;;5025505;28;20210;-72
2022/10/25 12:18:49;;;;;;;5.50;3.95;;;;;;;;;;5025040;28;20195;-72
2022/10/25 12:21:17;;;;;;;5.25;4.03;;;;;;;;;;5047403;28;20193;-72
2022/10/25 12:23:45;;;;;;;8.73;3.80;;;;;;;;;;5031773;28;20581;-72
2022/10/25 12:26:32;;;;;;;7.75;5.65;;;;;;;;;;5027475;28;20633;-72
2022/10/25 12:28:59;;;;;;;11.07;4.88;;;;;;;;;;5027740;28;20263;-72
2022/10/25 12:31:26;;;;;;;10.45;4.45;;;;;;;;;;5025005;28;20547;-72
2022/10/25 12:33:54;;;;;;;7.18;3.90;;;;;;;;;;5025590;28;20166;-72
2022/10/25 12:36:29;;;;;;;8.82;4.03;;;;;;;;;;5031109;28;20209;-72
2022/10/25 12:38:56;;;;;;;11.00;4.13;;;;;;;;;;5029642;28;21677;-72
2022/10/25 12:41:23;;;;;;;9.55;4.95;;;;;;;;;;5028037;28;20174;-72
2022/10/25 12:43:57;;;;;;;8.18;4.10;;;;;;;;;;5029066;28;20193;-72
2022/10/25 12:46:29;;;;;;;9.45;4.53;;;;;;;;;;5031082;28;20178;-72
2022/10/25 12:49:03;;;;;;;8.60;4.22;;;;;;;;;;5027163;28;20278;-72
2022/10/25 12:51:28;;;;;;;7.35;3.75;;;;;;;;;;5023416;28;20218;-72
2022/10/25 12:54:13;;;;;;;10.93;4.00;;;;;;;;;;5027890;28;20182;-73
2022/10/25 12:56:41;;;;;;;8.05;4.50;;;;;;;;;;5028859;28;20463;-72
2022/10/25 12:59:11;;;;;;;11.48;4.53;;;;;;;;;;5029425;28;20251;-72
2022/10/25 13:02:09;;;;;;;7.20;3.70;;;;;;;;;;5026839;28;20178;-72
2022/10/25 13:04:40;;;;;;;6.32;2.80;;;;;;;;;;5004559;28;20194;-72
2022/10/25 13:07:06;;;;;;;6.95;3.33;;;;;;;;;;5025132;28;20182;-72
2022/10/25 13:09:33;;;;;;;4.85;2.80;;;;;;;;;;5026080;28;20413;-72
2022/10/25 13:12:00;;;;;;;8.38;3.40;;;;;;;;;;5027550;28;20182;-72
2022/10/25 13:14:30;;;;;;;5.22;3.58;;;;;;;;;;5026397;28;20170;-72
2022/10/25 13:17:14;;;;;;;6.70;3.25;;;;;;;;;;5024670;28;20189;-72
2022/10/25 13:19:39;;;;;;;10.45;3.33;;;;;;;;;;5026951;28;20191;-72
2022/10/25 13:22:08;;;;;;;10.00;3.20;;;;;;;;;;5027602;28;20227;-73
2022/10/25 13:24:41;;;;;;;4.50;2.70;;;;;;;;;;5028058;28;20496;-72
2022/10/25 13:27:12;;;;;;;6.38;2.20;;;;;;;;;;5023556;28;20178;-72
2022/10/25 13:29:56;;;;;;;4.22;2.05;;;;;;;;;;5028720;28;20305;-72
2022/10/25 13:32:21;;;;;;;3.92;2.00;;;;;;;;;;5027979;28;20278;-72
2022/10/25 13:34:47;;;;;;;9.45;2.38;;;;;;;;;;5028809;28;20308;-72
2022/10/25 13:37:30;;;;;;;5.57;2.25;;;;;;;;;;5027365;28;20186;-72
2022/10/25 13:40:03;;;;;;;7.78;2.15;;;;;;;;;;5018066;28;20189;-72
2022/10/25 13:42:32;;;;;;;4.97;2.05;;;;;;;;;;5029813;28;20655;-71
2022/10/25 13:45:03;;;;;;;5.00;2.75;;;;;;;;;;5028030;28;20197;-71
2022/10/25 13:47:41;;;;;;;7.65;2.97;;;;;;;;;;5030118;28;20665;-71
2022/10/25 13:50:12;;;;;;;6.15;2.63;;;;;;;;;;5032485;28;20695;-71
2022/10/25 13:52:42;;;;;;;3.20;2.50;;;;;;;;;;5029392;28;20190;-71
2022/10/25 13:55:13;;;;;;;8.18;2.45;;;;;;;;;;5038899;28;20206;-71
2022/10/25 13:57:52;;;;;;;7.32;3.15;;;;;;;;;;5027083;28;20523;-71
2022/10/25 14:00:17;;;;;;;7.35;2.75;;;;;;;;;;5025702;28;20797;-71
2022/10/25 14:03:01;;;;;;;6.43;2.40;;;;;;;;;;5025852;28;20178;-71
2022/10/25 14:05:44;;;;;;;5.00;2.58;;;;;;;;;;5020920;28;20428;-71
2022/10/25 14:08:16;;;;;;;6.43;3.38;;;;;;;;;;5019697;28;20182;-71
2022/10/25 14:10:41;;;;;;;7.10;2.22;;;;;;;;;;5027360;28;20181;-73
2022/10/25 14:13:13;;;;;;;3.17;1.85;;;;;;;;;;5030897;28;20186;-72
2022/10/25 14:15:48;;;;;;;6.03;1.95;;;;;;;;;;5027006;28;20207;-72
2022/10/25 14:18:16;;;;;;;4.90;2.05;;;;;;;;;;5022931;28;20188;-72
2022/10/25 14:20:44;;;;;;;6.75;2.80;;;;;;;;;;5022346;28;20277;-73
2022/10/25 14:23:13;;;;;;;3.20;1.60;;;;;;;;;;5030575;28;20181;-72
2022/10/25 14:25:39;;;;;;;5.00;1.52;;;;;;;;;;5028623;28;20190;-72
2022/10/25 14:28:06;;;;;;;4.20;1.95;;;;;;;;;;5029219;28;20187;-72
2022/10/25 14:30:58;;;;;;;4.00;1.55;;;;;;;;;;5025054;28;20667;-72
2022/10/25 14:33:33;;;;;;;4.47;1.52;;;;;;;;;;5023978;28;20198;-72
2022/10/25 14:36:05;;;;;;;5.03;1.50;;;;;;;;;;5024281;28;20264;-72
2022/10/25 14:38:30;;;;;;;4.50;1.90;;;;;;;;;;5024649;28;20198;-72
2022/10/25 14:40:57;;;;;;;4.75;1.98;;;;;;;;;;5029773;28;20178;-72
2022/10/25 14:43:35;;;;;;;4.45;1.40;;;;;;;;;;5027043;28;20174;-72
2022/10/25 14:46:14;;;;;;;2.55;1.60;;;;;;;;;;5035113;28;20174;-72